createdAt,value
2023-04-26T00:01:23.957Z,2.10
2023-04-26T00:03:51.320Z,2.00
2023-04-26T00:06:18.824Z,2.00
2023-04-26T00:08:45.648Z,2.00
2023-04-26T00:11:12.420Z,2.10
2023-04-26T00:13:39.187Z,2.20
2023-04-26T00:16:06.108Z,2.20
2023-04-26T00:18:32.970Z,2.20
2023-04-26T00:20:59.786Z,2.10
2023-04-26T00:23:26.720Z,2.10
2023-04-26T00:25:53.595Z,2.00
2023-04-26T00:28:20.415Z,2.00
2023-04-26T00:30:48.895Z,2.00
2023-04-26T00:33:15.774Z,2.00
2023-04-26T00:35:42.689Z,1.90
2023-04-26T00:38:09.421Z,1.90
2023-04-26T00:40:36.246Z,1.90
2023-04-26T00:43:03.340Z,1.90
2023-04-26T00:45:30.465Z,2.00
2023-04-26T00:47:57.421Z,2.00
2023-04-26T00:50:24.504Z,2.00
2023-04-26T00:52:51.652Z,1.90
2023-04-26T00:55:18.898Z,2.00
2023-04-26T00:57:45.920Z,2.00
2023-04-26T01:00:13.158Z,1.90
2023-04-26T01:02:41.637Z,1.80
2023-04-26T01:05:09.459Z,1.80
2023-04-26T01:07:37.036Z,1.80
2023-04-26T01:10:06.789Z,1.70
2023-04-26T01:12:33.564Z,1.70
2023-04-26T01:15:01.032Z,1.70
2023-04-26T01:17:28.318Z,1.70
2023-04-26T01:19:55.284Z,1.70
2023-04-26T01:22:22.717Z,1.70
2023-04-26T01:24:51.237Z,1.60
2023-04-26T01:27:18.029Z,1.60
2023-04-26T01:29:46.197Z,1.60
2023-04-26T01:32:12.987Z,1.60
2023-04-26T01:34:39.723Z,1.70
2023-04-26T01:37:07.824Z,1.90
2023-04-26T01:39:34.964Z,2.00
2023-04-26T01:42:02.998Z,2.00
2023-04-26T01:44:29.732Z,2.00
2023-04-26T01:46:56.576Z,2.00
2023-04-26T01:49:23.407Z,2.00
2023-04-26T01:51:50.587Z,1.90
2023-04-26T01:54:17.361Z,1.90
2023-04-26T01:56:44.134Z,1.80
2023-04-26T01:59:10.888Z,1.80
2023-04-26T02:01:37.721Z,1.70
2023-04-26T02:04:06.399Z,1.70
2023-04-26T02:06:33.145Z,1.70
2023-04-26T02:08:59.922Z,1.60
2023-04-26T02:11:27.163Z,1.60
2023-04-26T02:13:54.061Z,1.60
2023-04-26T02:16:21.374Z,1.50
2023-04-26T02:18:49.940Z,1.50
2023-04-26T02:21:18.480Z,1.40
2023-04-26T02:23:45.417Z,1.30
2023-04-26T02:26:12.763Z,1.40
2023-04-26T02:28:39.880Z,1.50
2023-04-26T02:31:06.878Z,1.50
2023-04-26T02:33:33.919Z,1.50
2023-04-26T02:36:05.198Z,1.60
2023-04-26T02:38:35.843Z,1.50
2023-04-26T02:41:03.344Z,1.50
2023-04-26T02:43:30.138Z,1.50
2023-04-26T02:45:59.031Z,1.50
2023-04-26T02:48:25.972Z,1.50
2023-04-26T02:50:53.276Z,1.40
2023-04-26T02:53:20.156Z,1.40
2023-04-26T02:55:46.923Z,1.40
2023-04-26T02:58:13.668Z,1.30
2023-04-26T03:00:45.573Z,1.30
2023-04-26T03:03:12.573Z,1.30
2023-04-26T03:05:39.534Z,1.20
2023-04-26T03:08:07.201Z,1.10
2023-04-26T03:10:34.343Z,1.10
2023-04-26T03:13:01.287Z,1.10
2023-04-26T03:15:28.013Z,1.10
2023-04-26T03:17:54.757Z,1.20
2023-04-26T03:20:21.565Z,1.30
2023-04-26T03:22:48.287Z,1.30
2023-04-26T03:25:16.307Z,1.30
2023-04-26T03:27:43.277Z,1.30
2023-04-26T03:30:10.142Z,1.30
2023-04-26T03:32:36.953Z,1.30
2023-04-26T03:35:04.782Z,1.30
2023-04-26T03:37:31.844Z,1.30
2023-04-26T03:39:58.593Z,1.30
2023-04-26T03:42:25.367Z,1.20
2023-04-26T03:44:52.156Z,1.20
2023-04-26T03:47:18.904Z,1.10
2023-04-26T03:49:45.714Z,1.10
2023-04-26T03:52:12.456Z,1.10
2023-04-26T03:54:39.181Z,1.00
2023-04-26T03:57:06.138Z,1.00
2023-04-26T03:59:32.993Z,0.90
2023-04-26T04:01:59.938Z,0.90
2023-04-26T04:04:27.170Z,0.90
2023-04-26T04:06:54.137Z,1.00
2023-04-26T04:09:20.910Z,1.00
2023-04-26T04:11:47.748Z,1.00
2023-04-26T04:14:14.565Z,1.00
2023-04-26T04:16:41.396Z,1.00
2023-04-26T04:19:08.895Z,1.00
2023-04-26T04:21:35.700Z,1.00
2023-04-26T04:24:02.469Z,1.00
2023-04-26T04:26:29.333Z,1.00
2023-04-26T04:28:57.573Z,1.00
2023-04-26T04:31:24.891Z,1.00
2023-04-26T04:33:51.708Z,1.10
2023-04-26T04:36:18.583Z,1.00
2023-04-26T04:38:45.394Z,1.10
2023-04-26T04:41:12.370Z,1.10
2023-04-26T04:43:39.123Z,1.00
2023-04-26T04:46:05.982Z,1.10
2023-04-26T04:48:33.734Z,1.10
2023-04-26T04:51:00.678Z,1.10
2023-04-26T04:53:27.529Z,1.10
2023-04-26T04:55:54.314Z,1.10
2023-04-26T04:58:22.526Z,1.10
2023-04-26T05:00:50.330Z,1.20
2023-04-26T05:03:17.326Z,1.10
2023-04-26T05:05:44.189Z,1.20
2023-04-26T05:08:11.029Z,1.20
2023-04-26T05:10:37.926Z,1.20
2023-04-26T05:13:06.061Z,1.20
2023-04-26T05:15:32.862Z,1.20
2023-04-26T05:17:59.721Z,1.30
2023-04-26T05:20:26.576Z,1.40
2023-04-26T05:22:53.356Z,1.40
2023-04-26T05:25:22.315Z,1.40
2023-04-26T05:27:49.529Z,1.50
2023-04-26T05:30:16.743Z,1.60
2023-04-26T05:32:43.539Z,1.60
2023-04-26T05:35:10.322Z,1.70
2023-04-26T05:37:37.082Z,1.70
2023-04-26T05:40:04.794Z,1.80
2023-04-26T05:42:31.536Z,1.80
2023-04-26T05:44:59.130Z,1.90
2023-04-26T05:47:26.452Z,2.00
2023-04-26T05:49:53.284Z,2.00
2023-04-26T05:52:20.003Z,2.20
2023-04-26T05:54:46.833Z,2.30
2023-04-26T05:57:13.896Z,2.30
2023-04-26T05:59:41.309Z,2.40
2023-04-26T06:02:08.240Z,2.50
2023-04-26T06:04:35.573Z,2.50
2023-04-26T06:07:02.461Z,2.60
2023-04-26T06:09:31.485Z,2.60
2023-04-26T06:11:58.317Z,2.70
2023-04-26T06:14:30.422Z,2.70
2023-04-26T06:16:58.165Z,2.70
2023-04-26T06:19:25.102Z,2.80
2023-04-26T06:21:55.631Z,2.80
2023-04-26T09:54:06.752Z,12.60
2023-04-26T09:56:33.497Z,12.80
2023-04-26T09:59:01.313Z,12.20
2023-04-26T10:01:31.667Z,11.40
2023-04-26T10:04:00.884Z,10.90
2023-04-26T10:06:28.453Z,11.20
2023-04-26T10:08:55.907Z,11.40
2023-04-26T10:11:23.320Z,11.80
2023-04-26T10:13:52.930Z,12.20
2023-04-26T10:16:21.032Z,12.50
2023-04-26T10:18:49.350Z,12.80
2023-04-26T10:21:17.532Z,12.80
2023-04-26T10:26:30.306Z,13.00
2023-04-26T10:29:02.060Z,13.40
2023-04-26T10:31:49.741Z,12.60
2023-04-26T10:34:20.417Z,12.10
2023-04-26T10:37:05.681Z,11.60
2023-04-26T10:39:32.453Z,10.90
2023-04-26T10:42:25.685Z,11.60
2023-04-26T10:44:54.020Z,12.30
2023-04-26T10:47:24.833Z,13.20
2023-04-26T10:49:51.604Z,13.00
2023-04-26T10:52:25.381Z,12.30
2023-04-26T10:54:55.817Z,11.70
2023-04-26T10:57:23.282Z,12.10
2023-04-26T11:00:22.576Z,11.80
2023-04-26T11:02:53.207Z,11.20
2023-04-26T11:05:37.734Z,10.90
2023-04-26T11:08:25.472Z,10.50
2023-04-26T11:10:58.733Z,10.20
2023-04-26T11:13:25.742Z,10.20
2023-04-26T11:15:53.397Z,10.10
2023-04-26T11:18:21.280Z,10.40
2023-04-26T11:20:48.040Z,10.70
2023-04-26T11:23:15.326Z,10.80
2023-04-26T11:25:42.133Z,10.60
2023-04-26T11:28:08.862Z,10.60
2023-04-26T11:30:35.770Z,10.10
2023-04-26T11:33:05.973Z,10.10
2023-04-26T11:35:35.164Z,10.00
2023-04-26T11:38:03.995Z,9.90
2023-04-26T11:40:31.827Z,9.80
2023-04-26T11:43:04.904Z,9.70
2023-04-26T11:45:32.555Z,9.60
2023-04-26T11:48:00.224Z,9.60
2023-04-26T11:50:27.227Z,9.60
2023-04-26T11:52:54.980Z,9.60
2023-04-26T11:55:26.107Z,9.70
2023-04-26T11:57:52.918Z,9.60
2023-04-26T12:00:20.320Z,9.50
2023-04-26T12:02:47.761Z,9.60
2023-04-26T12:05:21.845Z,9.40
2023-04-26T12:07:52.824Z,9.50
2023-04-26T12:10:27.100Z,9.60
2023-04-26T12:12:56.230Z,9.70
2023-04-26T12:15:23.771Z,9.30
2023-04-26T12:17:58.435Z,8.90
2023-04-26T12:20:32.504Z,8.90
2023-04-26T12:22:59.868Z,9.00
2023-04-26T12:25:26.686Z,9.10
2023-04-26T12:27:53.476Z,8.90
2023-04-26T12:30:20.482Z,8.90
2023-04-26T12:32:47.497Z,8.80
2023-04-26T12:35:15.616Z,8.60
2023-04-26T12:37:42.378Z,8.60
2023-04-26T12:40:10.349Z,8.40
2023-04-26T12:42:37.185Z,8.30
2023-04-26T12:45:04.302Z,8.20
2023-04-26T12:47:31.986Z,8.30
2023-04-26T12:50:01.129Z,8.40
2023-04-26T12:52:35.564Z,8.40
2023-04-26T12:55:02.310Z,8.50
2023-04-26T12:57:29.050Z,8.50
2023-04-26T12:59:56.693Z,8.50
2023-04-26T13:02:24.416Z,8.40
2023-04-26T13:04:51.486Z,8.40
2023-04-26T13:07:18.500Z,8.40
2023-04-26T13:09:45.754Z,8.40
2023-04-26T13:12:12.617Z,8.30
2023-04-26T13:14:39.383Z,8.40
2023-04-26T13:17:07.352Z,8.20
2023-04-26T13:19:34.830Z,8.00
2023-04-26T13:22:04.888Z,7.90
2023-04-26T13:24:31.641Z,8.10
2023-04-26T13:26:58.457Z,8.20
2023-04-26T13:29:25.597Z,8.40
2023-04-26T13:31:52.489Z,8.60
2023-04-26T13:34:19.277Z,8.50
2023-04-26T13:36:46.028Z,8.30
2023-04-26T13:39:13.007Z,8.20
2023-04-26T13:41:39.785Z,8.10
2023-04-26T13:44:06.643Z,8.20
2023-04-26T13:46:33.434Z,8.20
2023-04-26T13:49:00.298Z,8.10
2023-04-26T13:51:27.355Z,8.00
2023-04-26T13:53:55.206Z,7.80
2023-04-26T13:56:23.493Z,7.70
2023-04-26T13:58:54.561Z,7.60
2023-04-26T14:01:21.296Z,7.50
2023-04-26T14:03:48.289Z,7.40
2023-04-26T14:06:15.229Z,7.40
2023-04-26T14:08:41.957Z,7.50
2023-04-26T14:11:08.759Z,7.50
2023-04-26T14:13:35.525Z,7.50
2023-04-26T14:16:02.306Z,7.50
2023-04-26T14:18:29.109Z,7.40
2023-04-26T14:20:55.875Z,7.50
2023-04-26T14:23:22.623Z,7.50
2023-04-26T14:25:52.939Z,7.60
2023-04-26T14:28:20.169Z,7.80
2023-04-26T14:30:46.944Z,8.00
2023-04-26T14:33:13.759Z,8.10
2023-04-26T14:35:41.422Z,8.20
2023-04-26T14:38:08.160Z,8.30
2023-04-26T14:40:35.949Z,8.30
2023-04-26T14:43:03.142Z,8.30
2023-04-26T14:45:43.294Z,8.30
2023-04-26T14:48:12.526Z,8.20
2023-04-26T14:50:39.319Z,8.20
2023-04-26T14:53:06.161Z,8.30
2023-04-26T14:55:32.952Z,8.30
2023-04-26T14:57:59.802Z,8.40
2023-04-26T15:00:26.936Z,8.50
2023-04-26T15:02:53.878Z,8.60
2023-04-26T15:05:21.798Z,8.40
2023-04-26T15:07:48.594Z,8.30
2023-04-26T15:10:15.380Z,8.20
2023-04-26T15:12:42.174Z,8.30
2023-04-26T15:15:09.112Z,8.10
2023-04-26T15:17:36.007Z,8.00
2023-04-26T15:20:02.911Z,7.90
2023-04-26T15:22:29.704Z,7.80
2023-04-26T15:24:56.490Z,7.90
2023-04-26T15:27:24.941Z,8.10
2023-04-26T15:29:51.692Z,7.90
2023-04-26T15:32:18.490Z,7.80
2023-04-26T15:34:45.966Z,7.60
2023-04-26T15:37:12.759Z,7.60
2023-04-26T15:39:39.596Z,7.60
2023-04-26T15:42:06.927Z,7.50
2023-04-26T15:44:34.168Z,7.60
2023-04-26T15:47:01.710Z,7.50
2023-04-26T15:49:28.849Z,7.40
2023-04-26T15:51:55.902Z,7.30
2023-04-26T15:54:23.049Z,7.20
2023-04-26T15:56:49.813Z,7.20
2023-04-26T15:59:16.642Z,7.20
2023-04-26T16:04:11.842Z,7.30
2023-04-26T16:06:38.991Z,7.10
2023-04-26T16:09:23.460Z,7.00
2023-04-26T16:11:51.351Z,6.90
2023-04-26T16:14:18.118Z,6.70
2023-04-26T16:16:46.143Z,6.70
2023-04-26T16:19:13.035Z,6.60
2023-04-26T16:21:40.821Z,6.50
2023-04-26T16:24:09.323Z,6.50
2023-04-26T16:26:36.411Z,6.50
2023-04-26T16:29:06.279Z,6.50
2023-04-26T16:31:33.351Z,6.50
2023-04-26T16:34:00.208Z,6.40
2023-04-26T16:36:27.641Z,6.50
2023-04-26T16:38:55.009Z,6.30
2023-04-26T16:41:23.183Z,6.30
2023-04-26T16:43:52.741Z,6.40
2023-04-26T16:46:20.090Z,6.30
2023-04-26T16:48:46.915Z,6.30
2023-04-26T16:51:13.728Z,6.20
2023-04-26T16:53:40.915Z,6.30
2023-04-26T16:56:08.010Z,6.20
2023-04-26T16:58:34.881Z,6.20
2023-04-26T17:01:01.819Z,6.20
2023-04-26T17:03:28.927Z,6.20
2023-04-26T17:05:56.083Z,6.20
2023-04-26T17:08:23.038Z,6.20
2023-04-26T17:10:49.926Z,6.20
2023-04-26T17:13:17.791Z,6.20
2023-04-26T17:15:44.815Z,6.20
2023-04-26T17:18:11.813Z,6.20
2023-04-26T17:20:38.765Z,6.20
2023-04-26T17:23:05.629Z,6.20
2023-04-26T17:25:32.441Z,6.20
2023-04-26T17:27:59.426Z,6.30
2023-04-26T17:30:26.191Z,6.30
2023-04-26T17:32:53.093Z,6.30
2023-04-26T17:35:19.948Z,6.30
2023-04-26T17:37:49.856Z,6.30
2023-04-26T17:40:18.008Z,6.30
2023-04-26T17:42:46.113Z,6.30
2023-04-26T17:45:14.233Z,6.30
2023-04-26T17:47:41.848Z,6.30
2023-04-26T17:50:09.399Z,6.30
2023-04-26T17:52:36.515Z,6.20
2023-04-26T17:55:05.151Z,6.20
2023-04-26T17:57:32.000Z,6.20
2023-04-26T17:59:58.771Z,6.10
2023-04-26T18:02:25.755Z,6.20
2023-04-26T18:04:53.372Z,6.10
2023-04-26T18:07:20.575Z,6.10
2023-04-26T18:09:47.356Z,6.10
2023-04-26T18:12:14.202Z,6.10
2023-04-26T18:14:44.824Z,6.10
2023-04-26T18:17:17.910Z,6.10
2023-04-26T18:19:44.768Z,6.10
2023-04-26T18:22:11.689Z,6.10
2023-04-26T18:24:38.572Z,6.10
2023-04-26T18:27:06.343Z,6.20
2023-04-26T18:29:33.274Z,6.20
2023-04-26T18:32:00.177Z,6.20
2023-04-26T18:34:26.982Z,6.10
2023-04-26T18:36:53.792Z,6.10
2023-04-26T18:39:20.817Z,6.20
2023-04-26T18:41:48.322Z,6.20
2023-04-26T18:44:15.352Z,6.30
2023-04-26T18:46:43.228Z,6.30
2023-04-26T18:49:10.448Z,6.30
2023-04-26T18:51:37.318Z,6.30
2023-04-26T18:54:04.462Z,6.20
2023-04-26T18:56:31.642Z,6.20
2023-04-26T18:58:58.526Z,6.20
2023-04-26T19:01:25.469Z,6.20
2023-04-26T19:03:52.464Z,6.20
2023-04-26T19:06:19.505Z,6.20
2023-04-26T19:08:46.447Z,6.10
2023-04-26T19:11:13.841Z,6.20
2023-04-26T19:13:40.681Z,6.20
2023-04-26T19:16:08.272Z,6.10
2023-04-26T19:18:38.154Z,6.10
2023-04-26T19:21:05.326Z,6.10
